Stations météo

réclame
Mon MeteoGroup
Monte Scuro, Italie (16344): Température de l'air & dewpoint: 09.11.2018 22:00:00 - 15.11.2018 22:00:00 (CET)Monte Scuro, Italie (16344): Vitesse du vent: 09.11.2018 22:00:00 - 15.11.2018 22:00:00 (CET)Monte Scuro, Italie (16344): Direction du vent: 09.11.2018 22:00:00 - 15.11.2018 22:00:00 (CET)Monte Scuro, Italie (16344): visibility: 09.11.2018 22:00:00 - 15.11.2018 22:00:00 (CET)Monte Scuro, Italie (16344): Ensoleillement: 09.11.2018 22:00:00 - 15.11.2018 22:00:00 (CET)
Date & Time tt [°C] td [°C] ff [km/h] ff [knt] dd vv [km] sd [min]
15.11.2018 22:00:00 4,0 3,7 15 8 NE - -
15.11.2018 21:00:00 4,2 3,9 11 6 ENE - -
15.11.2018 20:00:00 4,4 4,1 11 6 ENE - -
15.11.2018 19:00:00 4,6 4,5 11 6 NE - -
15.11.2018 18:00:00 4,8 4,5 13 7 NE - 0
15.11.2018 17:00:00 5,0 4,6 11 6 NE 10 0
15.11.2018 16:00:00 6,8 5,3 13 7 ENE 20 24
15.11.2018 15:00:00 6,8 5,1 8 4 ENE 20 0
15.11.2018 14:00:00 7,4 5,4 9 5 ENE 20 18
15.11.2018 13:00:00 7,8 4,6 11 6 ENE 20 60
15.11.2018 12:00:00 7,6 4,0 15 8 ENE 25 60
15.11.2018 11:00:00 7,2 3,8 13 7 E 25 60
15.11.2018 10:00:00 8,4 6,5 18 10 E 20 60
15.11.2018 09:00:00 6,6 4,8 21 11 E 20 60
15.11.2018 08:00:00 5,2 4,5 18 10 ENE 10 60
15.11.2018 07:00:00 4,6 4,6 22 12 NE 10 -
15.11.2018 06:00:00 7,0 0,4 8 4 W 10 -
15.11.2018 05:00:00 7,0 -0,2 8 4 W 10 -
15.11.2018 04:00:00 7,0 -1,4 22 12 W 10 -
15.11.2018 03:00:00 7,0 -0,9 9 5 W 10 -
15.11.2018 02:00:00 6,2 1,1 22 12 ENE 10 -
15.11.2018 01:00:00 6,2 2,1 22 12 NNE 10 -
15.11.2018 00:00:00 7,0 2,7 21 11 NNE 10 -
14.11.2018 23:00:00 7,0 2,3 18 10 NNE 10 -
14.11.2018 22:00:00 7,2 2,1 22 12 ENE 10 -
14.11.2018 21:00:00 7,8 2,1 13 7 NNE 10 -
14.11.2018 20:00:00 8,0 2,9 8 4 NNE 10 -
14.11.2018 19:00:00 8,0 3,8 9 5 NE 10 -
14.11.2018 18:00:00 8,6 1,3 11 6 NNE 10 -
14.11.2018 17:00:00 9,0 2,8 9 5 NNE 10 60
14.11.2018 16:00:00 9,0 -0,6 11 6 NNE 20 60
14.11.2018 15:00:00 9,4 0,6 8 4 NNE 20 60
14.11.2018 14:00:00 9,8 0,2 9 5 NNE 20 60
14.11.2018 13:00:00 10,0 1,1 8 4 NE 20 60
14.11.2018 12:00:00 9,6 1,7 8 4 E 20 60
14.11.2018 11:00:00 9,6 1,8 8 4 E 20 60
14.11.2018 10:00:00 9,0 2,8 0 0 N 20 60
14.11.2018 09:00:00 8,8 3,2 0 0 N 20 60
14.11.2018 08:00:00 7,4 2,7 0 0 N 20 60
14.11.2018 07:00:00 7,2 2,5 0 0 N 20 0
14.11.2018 06:00:00 7,4 1,2 0 0 N 20 -
14.11.2018 05:00:00 8,0 2,9 18 10 NE 20 -
14.11.2018 04:00:00 8,0 2,9 18 10 ENE 20 -
14.11.2018 03:00:00 - - - - - - -
14.11.2018 02:00:00 7,0 1,5 15 8 ENE 20 -
14.11.2018 01:00:00 7,0 1,9 15 8 ENE 20 -
14.11.2018 00:00:00 - - - - - - -
13.11.2018 23:00:00 8,0 -0,5 18 10 ENE 20 -
13.11.2018 22:00:00 8,2 0,4 18 10 ENE 20 -
13.11.2018 21:00:00 8,0 6,1 18 10 ENE 20 -
13.11.2018 20:00:00 8,2 3,1 18 10 ENE 15 -
13.11.2018 19:00:00 9,0 6,6 0 0 N 20 -
13.11.2018 18:00:00 9,6 4,4 0 0 N 20 -
13.11.2018 17:00:00 10,4 1,8 0 0 N 20 -
13.11.2018 16:00:00 11,0 8,6 0 0 N 20 60
13.11.2018 15:00:00 11,8 7,9 0 0 N 20 60
13.11.2018 14:00:00 13,0 8,5 0 0 N 20 60
13.11.2018 13:00:00 12,0 7,7 0 0 N 20 60
13.11.2018 12:00:00 13,0 6,6 0 0 N 20 60
13.11.2018 11:00:00 13,0 -7,6 0 0 N 20 60
13.11.2018 10:00:00 12,0 -12,3 11 6 ENE 25 60
13.11.2018 09:00:00 10,8 -12,6 9 5 ENE 25 60
13.11.2018 08:00:00 9,8 -9,8 9 5 ENE 20 60
13.11.2018 07:00:00 9,0 -7,2 9 5 ENE 20 -
13.11.2018 06:00:00 8,8 -7,8 5 3 ENE 10 -
13.11.2018 05:00:00 9,0 -10,0 9 5 NNE 10 -
13.11.2018 04:00:00 9,0 -14,8 9 5 NNE 10 -
13.11.2018 03:00:00 8,0 0,7 11 6 ENE 10 -
13.11.2018 02:00:00 8,0 0,7 11 6 ENE 10 -
13.11.2018 01:00:00 7,6 5,2 11 6 ENE 10 -
13.11.2018 00:00:00 7,6 5,2 11 6 ENE 10 -
12.11.2018 23:00:00 7,8 3,7 11 6 ENE 10 -
12.11.2018 22:00:00 8,0 3,8 15 8 ENE 10 -
12.11.2018 21:00:00 8,0 2,9 11 6 ENE 10 -
12.11.2018 20:00:00 8,0 6,0 11 6 ENE 10 -
12.11.2018 19:00:00 8,0 7,3 9 5 NNE 10 -
12.11.2018 18:00:00 8,2 7,4 5 3 W 10 -
12.11.2018 17:00:00 8,6 8,0 11 6 W 15 12
12.11.2018 16:00:00 9,2 6,3 11 6 W 20 42
12.11.2018 15:00:00 10,2 6,2 11 6 W 20 60
12.11.2018 14:00:00 10,8 5,1 11 6 W 20 60
12.11.2018 13:00:00 10,6 5,4 11 6 W 25 60
12.11.2018 12:00:00 10,4 4,5 9 5 W 25 60
12.11.2018 11:00:00 10,4 5,2 5 3 W 25 60
12.11.2018 10:00:00 10,4 5,2 9 5 W 25 60
12.11.2018 09:00:00 8,2 2,7 8 4 WNW 25 60
12.11.2018 08:00:00 7,8 2,3 11 6 W 25 60
12.11.2018 07:00:00 7,0 2,1 9 5 WNW 20 0
12.11.2018 06:00:00 7,0 2,9 11 6 E 10 -
12.11.2018 05:00:00 7,0 3,1 11 6 E 10 -
12.11.2018 04:00:00 7,0 4,1 9 5 E 10 -
12.11.2018 03:00:00 7,2 4,0 9 5 ENE 10 -
12.11.2018 02:00:00 7,2 3,1 13 7 ENE 10 -
12.11.2018 01:00:00 7,2 2,1 11 6 ENE 10 -
12.11.2018 00:00:00 7,4 3,1 13 7 E 10 -
11.11.2018 23:00:00 7,6 3,5 11 6 NE 10 -
11.11.2018 22:00:00 7,4 3,3 11 6 NE 10 -
11.11.2018 21:00:00 7,0 5,5 11 6 NE 10 -
11.11.2018 20:00:00 7,4 6,8 13 7 NNE 10 -
11.11.2018 19:00:00 8,0 6,1 8 4 W 10 -
11.11.2018 18:00:00 8,0 7,4 11 6 W 10 -
11.11.2018 17:00:00 8,8 8,0 0 0 N 15 0
11.11.2018 16:00:00 8,8 8,2 9 5 W - 0
11.11.2018 15:00:00 9,0 8,4 8 4 W - 0
11.11.2018 14:00:00 9,0 8,2 11 6 W 15 0
11.11.2018 13:00:00 9,0 7,4 9 5 W 20 0
11.11.2018 12:00:00 9,4 7,2 9 5 W 20 6
11.11.2018 11:00:00 9,2 5,6 9 5 W 25 30
11.11.2018 10:00:00 9,0 5,4 5 3 SSE 25 12
11.11.2018 09:00:00 9,0 5,2 4 2 SW 25 60
11.11.2018 08:00:00 7,8 5,4 4 2 SSE 20 60
11.11.2018 07:00:00 6,8 6,1 5 3 SSE 15 0
11.11.2018 06:00:00 6,6 3,7 8 4 SSE 10 -
11.11.2018 05:00:00 6,8 4,5 8 4 SSE 10 -
11.11.2018 04:00:00 6,8 4,6 8 4 SSE 10 -
11.11.2018 03:00:00 6,6 3,9 9 5 SSE 10 -
11.11.2018 02:00:00 6,6 3,4 9 5 SSE 10 -
11.11.2018 01:00:00 6,6 3,2 11 6 SSE 10 -
11.11.2018 00:00:00 6,6 3,7 15 8 SSE 10 -
10.11.2018 23:00:00 6,6 -0,4 13 7 SSE 10 -
10.11.2018 22:00:00 6,6 0,9 13 7 SSE 10 -
10.11.2018 21:00:00 6,6 3,4 0 0 N 10 -
10.11.2018 20:00:00 6,8 4,5 0 0 N 10 -
10.11.2018 19:00:00 6,8 4,5 0 0 N 10 -
10.11.2018 18:00:00 7,6 6,9 9 5 E 10 0
10.11.2018 17:00:00 7,8 7,5 9 5 E - 0
10.11.2018 16:00:00 8,4 6,5 4 2 WSW 10 0
10.11.2018 15:00:00 8,0 7,7 4 2 WNW - 0
10.11.2018 14:00:00 9,0 8,5 4 2 WNW - 0
10.11.2018 13:00:00 9,0 7,4 8 4 WNW 10 54
10.11.2018 12:00:00 9,2 7,7 9 5 WNW 30 60
10.11.2018 11:00:00 10,0 2,1 4 2 W 30 60
10.11.2018 10:00:00 9,0 -5,6 0 0 N 20 60
10.11.2018 09:00:00 8,0 -6,5 0 0 N 20 60
10.11.2018 08:00:00 7,0 -6,7 0 0 N 20 -
10.11.2018 07:00:00 6,2 -6,4 0 0 N 20 -
10.11.2018 06:00:00 6,0 -2,3 0 0 N 20 -
10.11.2018 05:00:00 6,0 -0,1 0 0 N 10 -
10.11.2018 04:00:00 6,0 -0,1 0 0 N 10 -
10.11.2018 03:00:00 - - - - - - -
10.11.2018 02:00:00 6,8 0,7 0 0 N 10 -
10.11.2018 01:00:00 6,8 -0,4 0 0 N 10 -
10.11.2018 00:00:00 - - - - - - -
09.11.2018 23:00:00 6,6 2,5 0 0 N 10 -
09.11.2018 22:00:00 6,8 3,6 0 0 N 10 -

tt = Température de l'air
td = dewpoint
ff = Vitesse du vent
dd = Direction du vent
vv = visibility
sd = Ensoleillement

stations d'obs. à proximité